sensor_id;sensor_type;location;lat;lon;timestamp;P1;durP1;ratioP1;P2;durP2;ratioP2
8100;SDS011;4093;53.470;9.832;2022-10-31T00:00:01;28.13;;;18.97;;
8100;SDS011;4093;53.470;9.832;2022-10-31T00:02:28;30.30;;;19.33;;
8100;SDS011;4093;53.470;9.832;2022-10-31T00:04:56;33.83;;;20.10;;
8100;SDS011;4093;53.470;9.832;2022-10-31T00:07:25;31.23;;;19.83;;
8100;SDS011;4093;53.470;9.832;2022-10-31T00:09:52;36.87;;;20.53;;
8100;SDS011;4093;53.470;9.832;2022-10-31T00:12:20;26.93;;;19.57;;
8100;SDS011;4093;53.470;9.832;2022-10-31T00:14:47;30.03;;;18.43;;
8100;SDS011;4093;53.470;9.832;2022-10-31T00:17:15;34.63;;;21.07;;
8100;SDS011;4093;53.470;9.832;2022-10-31T00:19:43;31.70;;;19.60;;
8100;SDS011;4093;53.470;9.832;2022-10-31T00:22:10;32.47;;;20.03;;
8100;SDS011;4093;53.470;9.832;2022-10-31T00:24:39;30.47;;;21.73;;
8100;SDS011;4093;53.470;9.832;2022-10-31T00:27:07;31.07;;;19.17;;
8100;SDS011;4093;53.470;9.832;2022-10-31T00:29:34;31.93;;;21.43;;
8100;SDS011;4093;53.470;9.832;2022-10-31T00:32:02;35.37;;;21.33;;
8100;SDS011;4093;53.470;9.832;2022-10-31T00:34:30;32.50;;;20.87;;
8100;SDS011;4093;53.470;9.832;2022-10-31T00:36:57;28.83;;;20.97;;
8100;SDS011;4093;53.470;9.832;2022-10-31T00:39:25;32.20;;;21.53;;
8100;SDS011;4093;53.470;9.832;2022-10-31T00:41:54;30.20;;;19.10;;
8100;SDS011;4093;53.470;9.832;2022-10-31T00:44:21;29.20;;;20.23;;
8100;SDS011;4093;53.470;9.832;2022-10-31T00:46:49;24.97;;;19.07;;
8100;SDS011;4093;53.470;9.832;2022-10-31T00:49:17;33.27;;;21.37;;
8100;SDS011;4093;53.470;9.832;2022-10-31T00:51:44;33.47;;;20.77;;
8100;SDS011;4093;53.470;9.832;2022-10-31T00:54:12;32.97;;;20.50;;
8100;SDS011;4093;53.470;9.832;2022-10-31T00:56:39;30.97;;;21.60;;
8100;SDS011;4093;53.470;9.832;2022-10-31T00:59:08;34.27;;;21.40;;
8100;SDS011;4093;53.470;9.832;2022-10-31T01:01:36;36.80;;;21.73;;
8100;SDS011;4093;53.470;9.832;2022-10-31T01:04:04;35.10;;;21.10;;
8100;SDS011;4093;53.470;9.832;2022-10-31T01:06:31;34.53;;;21.93;;
8100;SDS011;4093;53.470;9.832;2022-10-31T01:08:59;35.60;;;21.57;;
8100;SDS011;4093;53.470;9.832;2022-10-31T01:11:27;31.30;;;22.87;;
8100;SDS011;4093;53.470;9.832;2022-10-31T01:13:54;36.60;;;23.53;;
8100;SDS011;4093;53.470;9.832;2022-10-31T01:16:24;34.77;;;22.20;;
8100;SDS011;4093;53.470;9.832;2022-10-31T01:18:53;36.03;;;23.77;;
8100;SDS011;4093;53.470;9.832;2022-10-31T01:21:21;36.10;;;22.07;;
8100;SDS011;4093;53.470;9.832;2022-10-31T01:23:50;38.67;;;24.33;;
8100;SDS011;4093;53.470;9.832;2022-10-31T01:26:20;38.67;;;23.73;;
8100;SDS011;4093;53.470;9.832;2022-10-31T01:28:49;36.63;;;23.57;;
8100;SDS011;4093;53.470;9.832;2022-10-31T01:31:19;38.63;;;25.80;;
8100;SDS011;4093;53.470;9.832;2022-10-31T01:33:50;37.70;;;24.47;;
8100;SDS011;4093;53.470;9.832;2022-10-31T01:36:19;40.30;;;27.03;;
8100;SDS011;4093;53.470;9.832;2022-10-31T01:38:49;46.57;;;28.53;;
8100;SDS011;4093;53.470;9.832;2022-10-31T01:41:17;41.17;;;25.90;;
8100;SDS011;4093;53.470;9.832;2022-10-31T01:43:49;45.80;;;28.30;;
8100;SDS011;4093;53.470;9.832;2022-10-31T01:46:19;42.10;;;27.67;;
8100;SDS011;4093;53.470;9.832;2022-10-31T01:48:52;42.43;;;27.43;;
8100;SDS011;4093;53.470;9.832;2022-10-31T01:51:22;45.60;;;28.90;;
8100;SDS011;4093;53.470;9.832;2022-10-31T01:53:54;43.60;;;27.50;;
8100;SDS011;4093;53.470;9.832;2022-10-31T01:56:25;51.83;;;29.80;;
8100;SDS011;4093;53.470;9.832;2022-10-31T01:58:53;45.50;;;28.80;;
8100;SDS011;4093;53.470;9.832;2022-10-31T02:01:23;49.23;;;29.03;;
8100;SDS011;4093;53.470;9.832;2022-10-31T02:03:52;52.23;;;29.47;;
8100;SDS011;4093;53.470;9.832;2022-10-31T02:06:25;42.43;;;26.87;;
8100;SDS011;4093;53.470;9.832;2022-10-31T02:08:59;42.00;;;28.53;;
8100;SDS011;4093;53.470;9.832;2022-10-31T02:11:29;46.63;;;29.80;;
8100;SDS011;4093;53.470;9.832;2022-10-31T02:13:58;47.23;;;28.57;;
8100;SDS011;4093;53.470;9.832;2022-10-31T02:16:28;44.90;;;29.53;;
8100;SDS011;4093;53.470;9.832;2022-10-31T02:18:57;47.50;;;28.67;;
8100;SDS011;4093;53.470;9.832;2022-10-31T02:21:26;45.77;;;28.40;;
8100;SDS011;4093;53.470;9.832;2022-10-31T02:27:21;43.30;;;27.80;;
8100;SDS011;4093;53.470;9.832;2022-10-31T02:30:03;44.93;;;26.53;;
8100;SDS011;4093;53.470;9.832;2022-10-31T02:32:45;49.43;;;28.47;;
8100;SDS011;4093;53.470;9.832;2022-10-31T02:35:23;45.53;;;28.23;;
8100;SDS011;4093;53.470;9.832;2022-10-31T02:37:57;44.33;;;26.30;;
8100;SDS011;4093;53.470;9.832;2022-10-31T02:40:30;43.17;;;28.80;;
8100;SDS011;4093;53.470;9.832;2022-10-31T02:43:05;46.00;;;28.37;;
8100;SDS011;4093;53.470;9.832;2022-10-31T02:45:39;50.30;;;28.17;;
8100;SDS011;4093;53.470;9.832;2022-10-31T02:48:14;43.63;;;27.10;;
8100;SDS011;4093;53.470;9.832;2022-10-31T02:50:45;46.83;;;30.13;;
8100;SDS011;4093;53.470;9.832;2022-10-31T02:53:18;44.67;;;28.17;;
8100;SDS011;4093;53.470;9.832;2022-10-31T02:55:50;46.93;;;29.23;;
8100;SDS011;4093;53.470;9.832;2022-10-31T02:58:22;44.23;;;29.20;;
8100;SDS011;4093;53.470;9.832;2022-10-31T03:00:57;43.50;;;27.07;;
8100;SDS011;4093;53.470;9.832;2022-10-31T03:03:42;45.07;;;26.93;;
8100;SDS011;4093;53.470;9.832;2022-10-31T03:06:20;41.27;;;28.10;;
8100;SDS011;4093;53.470;9.832;2022-10-31T03:08:58;46.27;;;26.40;;
8100;SDS011;4093;53.470;9.832;2022-10-31T03:11:39;43.20;;;28.17;;
8100;SDS011;4093;53.470;9.832;2022-10-31T03:14:16;42.33;;;27.20;;
8100;SDS011;4093;53.470;9.832;2022-10-31T03:16:49;44.40;;;29.50;;
8100;SDS011;4093;53.470;9.832;2022-10-31T03:19:22;46.57;;;29.07;;
8100;SDS011;4093;53.470;9.832;2022-10-31T03:21:53;44.37;;;28.27;;
8100;SDS011;4093;53.470;9.832;2022-10-31T03:24:26;39.67;;;27.10;;
8100;SDS011;4093;53.470;9.832;2022-10-31T03:26:57;45.43;;;29.20;;
8100;SDS011;4093;53.470;9.832;2022-10-31T03:29:28;43.07;;;28.23;;
8100;SDS011;4093;53.470;9.832;2022-10-31T03:32:02;51.17;;;30.23;;
8100;SDS011;4093;53.470;9.832;2022-10-31T03:34:33;45.37;;;29.87;;
8100;SDS011;4093;53.470;9.832;2022-10-31T03:37:03;51.23;;;28.90;;
8100;SDS011;4093;53.470;9.832;2022-10-31T03:39:34;51.53;;;31.00;;
8100;SDS011;4093;53.470;9.832;2022-10-31T03:42:04;48.33;;;29.83;;
8100;SDS011;4093;53.470;9.832;2022-10-31T03:44:34;48.17;;;30.87;;
8100;SDS011;4093;53.470;9.832;2022-10-31T03:47:05;47.77;;;32.13;;
8100;SDS011;4093;53.470;9.832;2022-10-31T03:49:34;47.57;;;32.23;;
8100;SDS011;4093;53.470;9.832;2022-10-31T03:52:04;48.90;;;31.63;;
8100;SDS011;4093;53.470;9.832;2022-10-31T03:54:42;57.17;;;33.37;;
8100;SDS011;4093;53.470;9.832;2022-10-31T03:57:13;51.40;;;32.30;;
8100;SDS011;4093;53.470;9.832;2022-10-31T03:59:47;57.43;;;33.57;;
8100;SDS011;4093;53.470;9.832;2022-10-31T04:02:20;55.80;;;32.97;;
8100;SDS011;4093;53.470;9.832;2022-10-31T04:04:53;56.80;;;32.20;;
8100;SDS011;4093;53.470;9.832;2022-10-31T04:07:21;50.33;;;31.90;;
8100;SDS011;4093;53.470;9.832;2022-10-31T04:09:52;53.67;;;32.27;;
8100;SDS011;4093;53.470;9.832;2022-10-31T04:12:21;54.97;;;34.13;;
8100;SDS011;4093;53.470;9.832;2022-10-31T04:14:51;57.07;;;34.47;;
8100;SDS011;4093;53.470;9.832;2022-10-31T04:17:22;48.23;;;31.70;;
8100;SDS011;4093;53.470;9.832;2022-10-31T04:19:58;49.17;;;31.33;;
8100;SDS011;4093;53.470;9.832;2022-10-31T04:22:26;59.83;;;34.67;;
8100;SDS011;4093;53.470;9.832;2022-10-31T04:24:53;55.57;;;33.53;;
8100;SDS011;4093;53.470;9.832;2022-10-31T04:27:21;65.90;;;36.93;;
8100;SDS011;4093;53.470;9.832;2022-10-31T04:29:49;59.80;;;36.60;;
8100;SDS011;4093;53.470;9.832;2022-10-31T04:32:16;57.50;;;35.80;;
8100;SDS011;4093;53.470;9.832;2022-10-31T04:34:44;69.93;;;36.93;;
8100;SDS011;4093;53.470;9.832;2022-10-31T04:37:13;57.83;;;34.73;;
8100;SDS011;4093;53.470;9.832;2022-10-31T04:39:40;57.87;;;35.60;;
8100;SDS011;4093;53.470;9.832;2022-10-31T04:42:08;58.27;;;34.87;;
8100;SDS011;4093;53.470;9.832;2022-10-31T04:44:35;66.47;;;35.93;;
8100;SDS011;4093;53.470;9.832;2022-10-31T04:47:03;55.10;;;33.27;;
8100;SDS011;4093;53.470;9.832;2022-10-31T04:49:31;62.93;;;36.00;;
8100;SDS011;4093;53.470;9.832;2022-10-31T04:51:59;54.33;;;33.87;;
8100;SDS011;4093;53.470;9.832;2022-10-31T04:54:27;49.37;;;31.20;;
8100;SDS011;4093;53.470;9.832;2022-10-31T04:56:55;56.37;;;32.13;;
8100;SDS011;4093;53.470;9.832;2022-10-31T04:59:23;59.03;;;34.17;;
8100;SDS011;4093;53.470;9.832;2022-10-31T05:01:50;56.30;;;33.97;;
8100;SDS011;4093;53.470;9.832;2022-10-31T05:04:18;61.23;;;32.97;;
8100;SDS011;4093;53.470;9.832;2022-10-31T05:06:46;53.03;;;31.17;;
8100;SDS011;4093;53.470;9.832;2022-10-31T05:09:13;50.63;;;30.33;;
8100;SDS011;4093;53.470;9.832;2022-10-31T05:11:42;49.13;;;29.13;;
8100;SDS011;4093;53.470;9.832;2022-10-31T05:14:10;53.50;;;30.47;;
8100;SDS011;4093;53.470;9.832;2022-10-31T05:16:37;50.13;;;32.13;;
8100;SDS011;4093;53.470;9.832;2022-10-31T05:19:05;48.00;;;28.83;;
8100;SDS011;4093;53.470;9.832;2022-10-31T05:21:32;50.07;;;30.77;;
8100;SDS011;4093;53.470;9.832;2022-10-31T05:24:00;49.47;;;31.03;;
8100;SDS011;4093;53.470;9.832;2022-10-31T05:26:28;48.57;;;31.00;;
8100;SDS011;4093;53.470;9.832;2022-10-31T05:28:57;44.67;;;27.53;;
8100;SDS011;4093;53.470;9.832;2022-10-31T05:31:24;58.87;;;32.27;;
8100;SDS011;4093;53.470;9.832;2022-10-31T05:33:52;48.47;;;30.33;;
8100;SDS011;4093;53.470;9.832;2022-10-31T05:36:19;49.73;;;31.83;;
8100;SDS011;4093;53.470;9.832;2022-10-31T05:38:47;49.67;;;29.17;;
8100;SDS011;4093;53.470;9.832;2022-10-31T05:41:14;48.03;;;30.00;;
8100;SDS011;4093;53.470;9.832;2022-10-31T05:43:42;49.83;;;29.83;;
8100;SDS011;4093;53.470;9.832;2022-10-31T05:46:11;50.80;;;31.27;;
8100;SDS011;4093;53.470;9.832;2022-10-31T05:48:39;52.30;;;32.27;;
8100;SDS011;4093;53.470;9.832;2022-10-31T05:51:06;39.60;;;26.73;;
8100;SDS011;4093;53.470;9.832;2022-10-31T05:53:34;50.90;;;30.87;;
8100;SDS011;4093;53.470;9.832;2022-10-31T05:56:01;48.57;;;29.70;;
8100;SDS011;4093;53.470;9.832;2022-10-31T05:58:29;45.90;;;28.67;;
8100;SDS011;4093;53.470;9.832;2022-10-31T06:00:56;47.93;;;29.50;;
8100;SDS011;4093;53.470;9.832;2022-10-31T06:03:25;42.63;;;27.07;;
8100;SDS011;4093;53.470;9.832;2022-10-31T06:05:53;48.07;;;28.70;;
8100;SDS011;4093;53.470;9.832;2022-10-31T06:08:20;44.97;;;27.40;;
8100;SDS011;4093;53.470;9.832;2022-10-31T06:10:48;40.13;;;26.20;;
8100;SDS011;4093;53.470;9.832;2022-10-31T06:13:16;40.33;;;24.53;;
8100;SDS011;4093;53.470;9.832;2022-10-31T06:15:43;39.10;;;27.47;;
8100;SDS011;4093;53.470;9.832;2022-10-31T06:18:11;37.03;;;24.30;;
8100;SDS011;4093;53.470;9.832;2022-10-31T06:20:40;42.60;;;26.83;;
8100;SDS011;4093;53.470;9.832;2022-10-31T06:23:07;43.40;;;27.40;;
8100;SDS011;4093;53.470;9.832;2022-10-31T06:25:35;41.43;;;26.87;;
8100;SDS011;4093;53.470;9.832;2022-10-31T06:28:03;44.80;;;25.07;;
8100;SDS011;4093;53.470;9.832;2022-10-31T06:30:30;47.87;;;29.47;;
8100;SDS011;4093;53.470;9.832;2022-10-31T06:33:01;52.00;;;29.37;;
8100;SDS011;4093;53.470;9.832;2022-10-31T06:35:29;43.30;;;28.57;;
8100;SDS011;4093;53.470;9.832;2022-10-31T06:37:58;42.63;;;27.17;;
8100;SDS011;4093;53.470;9.832;2022-10-31T06:40:27;40.50;;;27.07;;
8100;SDS011;4093;53.470;9.832;2022-10-31T06:42:57;47.67;;;28.20;;
8100;SDS011;4093;53.470;9.832;2022-10-31T06:45:26;41.73;;;26.37;;
8100;SDS011;4093;53.470;9.832;2022-10-31T06:47:54;45.33;;;27.33;;
8100;SDS011;4093;53.470;9.832;2022-10-31T06:50:42;45.77;;;26.53;;
8100;SDS011;4093;53.470;9.832;2022-10-31T06:53:11;42.40;;;27.37;;
8100;SDS011;4093;53.470;9.832;2022-10-31T06:55:40;42.37;;;26.67;;
8100;SDS011;4093;53.470;9.832;2022-10-31T06:58:09;42.33;;;26.87;;
8100;SDS011;4093;53.470;9.832;2022-10-31T07:00:37;41.60;;;26.60;;
8100;SDS011;4093;53.470;9.832;2022-10-31T07:03:06;39.27;;;25.93;;
8100;SDS011;4093;53.470;9.832;2022-10-31T07:05:34;71.60;;;29.77;;
8100;SDS011;4093;53.470;9.832;2022-10-31T07:08:03;40.77;;;25.87;;
8100;SDS011;4093;53.470;9.832;2022-10-31T07:10:34;44.20;;;26.67;;
8100;SDS011;4093;53.470;9.832;2022-10-31T07:13:08;40.97;;;28.13;;
8100;SDS011;4093;53.470;9.832;2022-10-31T07:15:38;46.97;;;29.37;;
8100;SDS011;4093;53.470;9.832;2022-10-31T07:18:08;39.07;;;26.17;;
8100;SDS011;4093;53.470;9.832;2022-10-31T07:20:36;41.40;;;27.07;;
8100;SDS011;4093;53.470;9.832;2022-10-31T07:23:04;42.57;;;28.13;;
8100;SDS011;4093;53.470;9.832;2022-10-31T07:25:33;40.07;;;25.77;;
8100;SDS011;4093;53.470;9.832;2022-10-31T07:28:01;37.57;;;26.60;;
8100;SDS011;4093;53.470;9.832;2022-10-31T07:30:29;33.33;;;22.77;;
8100;SDS011;4093;53.470;9.832;2022-10-31T07:32:57;35.53;;;25.50;;
8100;SDS011;4093;53.470;9.832;2022-10-31T07:35:25;36.60;;;25.00;;
8100;SDS011;4093;53.470;9.832;2022-10-31T07:37:54;32.67;;;22.50;;
8100;SDS011;4093;53.470;9.832;2022-10-31T07:40:24;33.77;;;24.03;;
8100;SDS011;4093;53.470;9.832;2022-10-31T07:42:53;32.93;;;22.33;;
8100;SDS011;4093;53.470;9.832;2022-10-31T07:45:20;35.60;;;24.87;;
8100;SDS011;4093;53.470;9.832;2022-10-31T07:47:49;30.17;;;20.63;;
8100;SDS011;4093;53.470;9.832;2022-10-31T07:50:18;31.27;;;22.90;;
8100;SDS011;4093;53.470;9.832;2022-10-31T07:52:46;31.47;;;21.13;;
8100;SDS011;4093;53.470;9.832;2022-10-31T07:55:14;32.60;;;23.70;;
8100;SDS011;4093;53.470;9.832;2022-10-31T07:57:42;34.47;;;24.90;;
8100;SDS011;4093;53.470;9.832;2022-10-31T08:00:11;35.10;;;23.43;;
8100;SDS011;4093;53.470;9.832;2022-10-31T08:02:39;37.30;;;23.33;;
8100;SDS011;4093;53.470;9.832;2022-10-31T08:05:07;33.80;;;24.17;;
8100;SDS011;4093;53.470;9.832;2022-10-31T08:07:35;31.13;;;23.20;;
8100;SDS011;4093;53.470;9.832;2022-10-31T08:10:04;36.77;;;25.97;;
8100;SDS011;4093;53.470;9.832;2022-10-31T08:12:32;26.93;;;20.50;;
8100;SDS011;4093;53.470;9.832;2022-10-31T08:15:00;28.67;;;20.40;;
8100;SDS011;4093;53.470;9.832;2022-10-31T08:17:29;34.07;;;21.83;;
8100;SDS011;4093;53.470;9.832;2022-10-31T08:19:56;30.00;;;20.93;;
8100;SDS011;4093;53.470;9.832;2022-10-31T08:22:24;27.10;;;19.30;;
8100;SDS011;4093;53.470;9.832;2022-10-31T08:24:52;30.73;;;21.07;;
8100;SDS011;4093;53.470;9.832;2022-10-31T08:27:19;27.73;;;20.90;;
8100;SDS011;4093;53.470;9.832;2022-10-31T08:29:47;33.13;;;23.43;;
8100;SDS011;4093;53.470;9.832;2022-10-31T08:32:15;32.97;;;22.50;;
8100;SDS011;4093;53.470;9.832;2022-10-31T08:34:44;37.47;;;23.90;;
8100;SDS011;4093;53.470;9.832;2022-10-31T08:37:11;36.00;;;23.43;;
8100;SDS011;4093;53.470;9.832;2022-10-31T08:39:39;37.60;;;24.67;;
8100;SDS011;4093;53.470;9.832;2022-10-31T08:42:06;33.43;;;22.63;;
8100;SDS011;4093;53.470;9.832;2022-10-31T08:44:34;37.13;;;24.73;;
8100;SDS011;4093;53.470;9.832;2022-10-31T08:47:01;37.17;;;24.67;;
8100;SDS011;4093;53.470;9.832;2022-10-31T08:49:30;33.40;;;23.33;;
8100;SDS011;4093;53.470;9.832;2022-10-31T08:51:59;35.03;;;24.60;;
8100;SDS011;4093;53.470;9.832;2022-10-31T08:54:27;39.67;;;24.37;;
8100;SDS011;4093;53.470;9.832;2022-10-31T08:56:54;43.87;;;26.50;;
8100;SDS011;4093;53.470;9.832;2022-10-31T08:59:22;38.73;;;26.47;;
8100;SDS011;4093;53.470;9.832;2022-10-31T09:01:50;45.67;;;26.47;;
8100;SDS011;4093;53.470;9.832;2022-10-31T09:04:18;39.93;;;23.50;;
8100;SDS011;4093;53.470;9.832;2022-10-31T09:06:45;38.57;;;25.00;;
8100;SDS011;4093;53.470;9.832;2022-10-31T09:09:34;41.93;;;25.63;;
8100;SDS011;4093;53.470;9.832;2022-10-31T09:12:02;43.20;;;25.47;;
8100;SDS011;4093;53.470;9.832;2022-10-31T09:14:30;45.33;;;25.30;;
8100;SDS011;4093;53.470;9.832;2022-10-31T09:16:57;39.90;;;25.70;;
8100;SDS011;4093;53.470;9.832;2022-10-31T09:19:25;47.97;;;27.17;;
8100;SDS011;4093;53.470;9.832;2022-10-31T09:21:52;43.77;;;24.93;;
8100;SDS011;4093;53.470;9.832;2022-10-31T09:24:21;45.10;;;25.27;;
8100;SDS011;4093;53.470;9.832;2022-10-31T09:26:50;41.40;;;26.20;;
8100;SDS011;4093;53.470;9.832;2022-10-31T09:29:17;34.17;;;22.80;;
8100;SDS011;4093;53.470;9.832;2022-10-31T09:31:45;40.60;;;25.20;;
8100;SDS011;4093;53.470;9.832;2022-10-31T09:34:12;47.60;;;25.53;;
8100;SDS011;4093;53.470;9.832;2022-10-31T09:36:40;41.97;;;25.20;;
8100;SDS011;4093;53.470;9.832;2022-10-31T09:39:09;35.47;;;23.23;;
8100;SDS011;4093;53.470;9.832;2022-10-31T09:41:50;41.60;;;23.10;;
8100;SDS011;4093;53.470;9.832;2022-10-31T09:44:30;40.97;;;23.47;;
8100;SDS011;4093;53.470;9.832;2022-10-31T09:47:08;34.67;;;21.17;;
8100;SDS011;4093;53.470;9.832;2022-10-31T09:49:52;35.93;;;21.90;;
8100;SDS011;4093;53.470;9.832;2022-10-31T09:52:28;32.70;;;20.37;;
8100;SDS011;4093;53.470;9.832;2022-10-31T09:54:58;39.00;;;22.43;;
8100;SDS011;4093;53.470;9.832;2022-10-31T09:57:33;27.87;;;18.80;;
8100;SDS011;4093;53.470;9.832;2022-10-31T10:00:03;32.03;;;21.07;;
8100;SDS011;4093;53.470;9.832;2022-10-31T10:02:33;35.37;;;21.63;;
8100;SDS011;4093;53.470;9.832;2022-10-31T10:05:05;33.30;;;20.30;;
8100;SDS011;4093;53.470;9.832;2022-10-31T10:07:39;33.23;;;22.37;;
8100;SDS011;4093;53.470;9.832;2022-10-31T10:10:15;35.13;;;20.67;;
8100;SDS011;4093;53.470;9.832;2022-10-31T10:12:53;34.00;;;21.27;;
8100;SDS011;4093;53.470;9.832;2022-10-31T10:15:57;33.73;;;20.87;;
8100;SDS011;4093;53.470;9.832;2022-10-31T10:18:37;27.80;;;16.90;;
8100;SDS011;4093;53.470;9.832;2022-10-31T10:21:18;37.20;;;18.93;;
8100;SDS011;4093;53.470;9.832;2022-10-31T10:23:56;23.87;;;16.97;;
8100;SDS011;4093;53.470;9.832;2022-10-31T10:26:34;26.47;;;17.07;;
8100;SDS011;4093;53.470;9.832;2022-10-31T10:29:16;31.67;;;18.00;;
8100;SDS011;4093;53.470;9.832;2022-10-31T10:31:51;25.87;;;17.67;;
8100;SDS011;4093;53.470;9.832;2022-10-31T10:34:21;29.47;;;16.47;;
8100;SDS011;4093;53.470;9.832;2022-10-31T10:36:52;29.43;;;19.00;;
8100;SDS011;4093;53.470;9.832;2022-10-31T10:39:24;29.73;;;18.37;;
8100;SDS011;4093;53.470;9.832;2022-10-31T10:41:57;33.17;;;20.20;;
8100;SDS011;4093;53.470;9.832;2022-10-31T10:44:45;31.97;;;19.90;;
8100;SDS011;4093;53.470;9.832;2022-10-31T10:47:35;28.73;;;19.73;;
8100;SDS011;4093;53.470;9.832;2022-10-31T10:50:10;34.07;;;19.83;;
8100;SDS011;4093;53.470;9.832;2022-10-31T10:52:45;34.83;;;22.30;;
8100;SDS011;4093;53.470;9.832;2022-10-31T10:55:23;33.10;;;21.07;;
8100;SDS011;4093;53.470;9.832;2022-10-31T10:58:00;34.00;;;21.50;;
8100;SDS011;4093;53.470;9.832;2022-10-31T11:00:32;30.60;;;18.97;;
8100;SDS011;4093;53.470;9.832;2022-10-31T11:03:03;35.30;;;20.17;;
8100;SDS011;4093;53.470;9.832;2022-10-31T11:05:33;33.40;;;19.10;;
8100;SDS011;4093;53.470;9.832;2022-10-31T11:08:04;35.07;;;21.47;;
8100;SDS011;4093;53.470;9.832;2022-10-31T11:10:34;32.03;;;19.43;;
8100;SDS011;4093;53.470;9.832;2022-10-31T11:13:04;30.00;;;17.73;;
8100;SDS011;4093;53.470;9.832;2022-10-31T11:15:51;30.83;;;19.83;;
8100;SDS011;4093;53.470;9.832;2022-10-31T11:18:23;33.63;;;20.17;;
8100;SDS011;4093;53.470;9.832;2022-10-31T11:21:03;32.63;;;21.17;;
8100;SDS011;4093;53.470;9.832;2022-10-31T11:23:31;34.27;;;20.93;;
8100;SDS011;4093;53.470;9.832;2022-10-31T11:26:00;29.70;;;20.03;;
8100;SDS011;4093;53.470;9.832;2022-10-31T11:28:30;28.83;;;18.63;;
8100;SDS011;4093;53.470;9.832;2022-10-31T11:31:07;27.60;;;17.90;;
8100;SDS011;4093;53.470;9.832;2022-10-31T11:33:39;29.10;;;18.03;;
8100;SDS011;4093;53.470;9.832;2022-10-31T11:36:24;28.33;;;17.73;;
8100;SDS011;4093;53.470;9.832;2022-10-31T11:38:53;28.13;;;18.45;;
8100;SDS011;4093;53.470;9.832;2022-10-31T11:41:24;23.53;;;15.27;;
8100;SDS011;4093;53.470;9.832;2022-10-31T11:43:55;22.30;;;15.63;;
8100;SDS011;4093;53.470;9.832;2022-10-31T11:46:33;25.73;;;17.23;;
8100;SDS011;4093;53.470;9.832;2022-10-31T11:49:04;26.03;;;17.07;;
8100;SDS011;4093;53.470;9.832;2022-10-31T11:51:38;24.33;;;16.00;;
8100;SDS011;4093;53.470;9.832;2022-10-31T11:54:15;22.67;;;16.60;;
8100;SDS011;4093;53.470;9.832;2022-10-31T11:56:48;24.42;;;16.08;;
8100;SDS011;4093;53.470;9.832;2022-10-31T11:59:18;17.83;;;13.20;;
8100;SDS011;4093;53.470;9.832;2022-10-31T12:01:52;24.17;;;15.10;;
8100;SDS011;4093;53.470;9.832;2022-10-31T12:04:23;19.15;;;14.05;;
8100;SDS011;4093;53.470;9.832;2022-10-31T12:06:59;21.00;;;14.55;;
8100;SDS011;4093;53.470;9.832;2022-10-31T12:09:28;25.13;;;16.80;;
8100;SDS011;4093;53.470;9.832;2022-10-31T12:12:05;23.70;;;14.83;;
8100;SDS011;4093;53.470;9.832;2022-10-31T12:14:44;26.15;;;15.80;;
8100;SDS011;4093;53.470;9.832;2022-10-31T12:17:23;24.50;;;17.23;;
8100;SDS011;4093;53.470;9.832;2022-10-31T12:20:00;27.63;;;16.83;;
8100;SDS011;4093;53.470;9.832;2022-10-31T12:22:36;27.15;;;16.65;;
8100;SDS011;4093;53.470;9.832;2022-10-31T12:25:18;26.85;;;16.67;;
8100;SDS011;4093;53.470;9.832;2022-10-31T12:27:59;25.63;;;16.90;;
8100;SDS011;4093;53.470;9.832;2022-10-31T12:30:40;24.17;;;16.63;;
8100;SDS011;4093;53.470;9.832;2022-10-31T12:33:23;21.93;;;15.23;;
8100;SDS011;4093;53.470;9.832;2022-10-31T12:36:07;24.73;;;14.60;;
8100;SDS011;4093;53.470;9.832;2022-10-31T12:38:46;22.63;;;14.33;;
8100;SDS011;4093;53.470;9.832;2022-10-31T12:41:28;21.30;;;14.87;;
8100;SDS011;4093;53.470;9.832;2022-10-31T12:44:06;22.67;;;15.50;;
8100;SDS011;4093;53.470;9.832;2022-10-31T12:46:48;19.17;;;13.70;;
8100;SDS011;4093;53.470;9.832;2022-10-31T12:49:36;21.25;;;14.93;;
8100;SDS011;4093;53.470;9.832;2022-10-31T12:52:14;22.43;;;14.87;;
8100;SDS011;4093;53.470;9.832;2022-10-31T12:54:56;23.92;;;15.63;;
8100;SDS011;4093;53.470;9.832;2022-10-31T12:57:35;24.23;;;16.37;;
8100;SDS011;4093;53.470;9.832;2022-10-31T13:00:10;27.73;;;16.50;;
8100;SDS011;4093;53.470;9.832;2022-10-31T13:02:43;22.63;;;15.43;;
8100;SDS011;4093;53.470;9.832;2022-10-31T13:05:18;24.57;;;15.87;;
8100;SDS011;4093;53.470;9.832;2022-10-31T13:07:52;29.37;;;16.57;;
8100;SDS011;4093;53.470;9.832;2022-10-31T13:10:24;26.63;;;17.47;;
8100;SDS011;4093;53.470;9.832;2022-10-31T13:12:57;25.97;;;17.50;;
8100;SDS011;4093;53.470;9.832;2022-10-31T13:15:34;24.50;;;15.97;;
8100;SDS011;4093;53.470;9.832;2022-10-31T13:18:21;28.73;;;17.57;;
8100;SDS011;4093;53.470;9.832;2022-10-31T13:20:55;26.73;;;16.80;;
8100;SDS011;4093;53.470;9.832;2022-10-31T13:23:27;26.87;;;17.10;;
8100;SDS011;4093;53.470;9.832;2022-10-31T13:26:19;26.30;;;15.77;;
8100;SDS011;4093;53.470;9.832;2022-10-31T13:28:52;28.73;;;19.07;;
8100;SDS011;4093;53.470;9.832;2022-10-31T13:31:24;31.70;;;17.33;;
8100;SDS011;4093;53.470;9.832;2022-10-31T13:33:53;25.40;;;16.23;;
8100;SDS011;4093;53.470;9.832;2022-10-31T13:36:27;26.17;;;16.87;;
8100;SDS011;4093;53.470;9.832;2022-10-31T13:39:02;26.53;;;17.10;;
8100;SDS011;4093;53.470;9.832;2022-10-31T13:41:43;24.63;;;16.43;;
8100;SDS011;4093;53.470;9.832;2022-10-31T13:44:17;26.70;;;16.67;;
8100;SDS011;4093;53.470;9.832;2022-10-31T13:46:48;19.63;;;14.33;;
8100;SDS011;4093;53.470;9.832;2022-10-31T13:49:24;17.47;;;12.60;;
8100;SDS011;4093;53.470;9.832;2022-10-31T13:52:22;18.70;;;12.63;;
8100;SDS011;4093;53.470;9.832;2022-10-31T13:54:51;14.98;;;10.60;;
8100;SDS011;4093;53.470;9.832;2022-10-31T13:57:25;14.90;;;9.70;;
8100;SDS011;4093;53.470;9.832;2022-10-31T14:00:00;13.03;;;9.70;;
8100;SDS011;4093;53.470;9.832;2022-10-31T14:02:31;12.63;;;7.60;;
8100;SDS011;4093;53.470;9.832;2022-10-31T14:05:03;13.65;;;8.48;;
8100;SDS011;4093;53.470;9.832;2022-10-31T14:07:42;12.90;;;8.75;;
8100;SDS011;4093;53.470;9.832;2022-10-31T14:10:20;14.18;;;8.23;;
8100;SDS011;4093;53.470;9.832;2022-10-31T14:12:51;13.75;;;8.10;;
8100;SDS011;4093;53.470;9.832;2022-10-31T14:15:20;14.93;;;8.38;;
8100;SDS011;4093;53.470;9.832;2022-10-31T14:17:51;17.77;;;10.50;;
8100;SDS011;4093;53.470;9.832;2022-10-31T14:20:24;18.48;;;10.77;;
8100;SDS011;4093;53.470;9.832;2022-10-31T14:23:11;11.13;;;6.97;;
8100;SDS011;4093;53.470;9.832;2022-10-31T14:25:39;9.67;;;5.80;;
8100;SDS011;4093;53.470;9.832;2022-10-31T14:28:18;9.87;;;5.93;;
8100;SDS011;4093;53.470;9.832;2022-10-31T14:30:51;9.50;;;5.10;;
8100;SDS011;4093;53.470;9.832;2022-10-31T14:33:19;12.83;;;7.10;;
8100;SDS011;4093;53.470;9.832;2022-10-31T14:35:51;12.97;;;8.50;;
8100;SDS011;4093;53.470;9.832;2022-10-31T14:38:28;16.37;;;9.63;;
8100;SDS011;4093;53.470;9.832;2022-10-31T14:44:18;14.20;;;8.48;;
8100;SDS011;4093;53.470;9.832;2022-10-31T14:47:16;13.77;;;9.90;;
8100;SDS011;4093;53.470;9.832;2022-10-31T14:49:57;15.38;;;9.02;;
8100;SDS011;4093;53.470;9.832;2022-10-31T14:52:36;13.02;;;9.77;;
8100;SDS011;4093;53.470;9.832;2022-10-31T14:55:07;17.17;;;10.18;;
8100;SDS011;4093;53.470;9.832;2022-10-31T14:57:43;15.82;;;10.02;;
8100;SDS011;4093;53.470;9.832;2022-10-31T15:00:15;13.43;;;9.57;;
8100;SDS011;4093;53.470;9.832;2022-10-31T15:02:48;13.03;;;9.83;;
8100;SDS011;4093;53.470;9.832;2022-10-31T15:05:27;18.60;;;9.73;;
8100;SDS011;4093;53.470;9.832;2022-10-31T15:07:57;14.63;;;9.00;;
8100;SDS011;4093;53.470;9.832;2022-10-31T15:10:27;15.43;;;9.63;;
8100;SDS011;4093;53.470;9.832;2022-10-31T15:13:08;13.30;;;9.77;;
8100;SDS011;4093;53.470;9.832;2022-10-31T15:15:36;18.07;;;10.87;;
8100;SDS011;4093;53.470;9.832;2022-10-31T15:18:04;16.97;;;9.87;;
8100;SDS011;4093;53.470;9.832;2022-10-31T15:20:33;16.63;;;10.00;;